sensor_id;sensor_type;location;lat;lon;timestamp;P1;durP1;ratioP1;P2;durP2;ratioP2
20449;SDS011;10384;51.940;8.432;2023-03-08T00:01:11;16.13;;;6.60;;
20449;SDS011;10384;51.940;8.432;2023-03-08T00:03:37;15.87;;;5.93;;
20449;SDS011;10384;51.940;8.432;2023-03-08T00:06:04;22.37;;;7.13;;
20449;SDS011;10384;51.940;8.432;2023-03-08T00:08:29;14.53;;;6.57;;
20449;SDS011;10384;51.940;8.432;2023-03-08T00:10:55;17.67;;;6.90;;
20449;SDS011;10384;51.940;8.432;2023-03-08T00:13:21;14.23;;;6.27;;
20449;SDS011;10384;51.940;8.432;2023-03-08T00:15:47;16.00;;;6.10;;
20449;SDS011;10384;51.940;8.432;2023-03-08T00:18:13;16.43;;;5.90;;
20449;SDS011;10384;51.940;8.432;2023-03-08T00:20:39;18.37;;;6.83;;
20449;SDS011;10384;51.940;8.432;2023-03-08T00:23:07;12.23;;;5.50;;
20449;SDS011;10384;51.940;8.432;2023-03-08T00:25:33;9.87;;;4.63;;
20449;SDS011;10384;51.940;8.432;2023-03-08T00:27:59;12.03;;;5.07;;
20449;SDS011;10384;51.940;8.432;2023-03-08T00:30:25;13.90;;;5.57;;
20449;SDS011;10384;51.940;8.432;2023-03-08T00:32:52;13.10;;;5.07;;
20449;SDS011;10384;51.940;8.432;2023-03-08T00:35:18;12.53;;;4.63;;
20449;SDS011;10384;51.940;8.432;2023-03-08T00:37:44;14.87;;;5.03;;
20449;SDS011;10384;51.940;8.432;2023-03-08T00:40:11;11.80;;;4.50;;
20449;SDS011;10384;51.940;8.432;2023-03-08T00:42:37;9.50;;;4.23;;
20449;SDS011;10384;51.940;8.432;2023-03-08T00:45:03;8.13;;;3.60;;
20449;SDS011;10384;51.940;8.432;2023-03-08T00:47:29;8.83;;;3.17;;
20449;SDS011;10384;51.940;8.432;2023-03-08T00:49:56;11.30;;;4.23;;
20449;SDS011;10384;51.940;8.432;2023-03-08T00:52:22;10.70;;;3.20;;
20449;SDS011;10384;51.940;8.432;2023-03-08T00:54:48;10.93;;;4.20;;
20449;SDS011;10384;51.940;8.432;2023-03-08T00:57:14;7.63;;;3.37;;
20449;SDS011;10384;51.940;8.432;2023-03-08T00:59:40;8.90;;;3.27;;
20449;SDS011;10384;51.940;8.432;2023-03-08T01:02:06;8.87;;;3.70;;
20449;SDS011;10384;51.940;8.432;2023-03-08T01:04:32;8.13;;;3.63;;
20449;SDS011;10384;51.940;8.432;2023-03-08T01:06:59;8.17;;;3.80;;
20449;SDS011;10384;51.940;8.432;2023-03-08T01:09:25;6.40;;;3.20;;
20449;SDS011;10384;51.940;8.432;2023-03-08T01:11:51;9.60;;;3.90;;
20449;SDS011;10384;51.940;8.432;2023-03-08T01:14:17;11.23;;;3.50;;
20449;SDS011;10384;51.940;8.432;2023-03-08T01:16:43;10.07;;;3.70;;
20449;SDS011;10384;51.940;8.432;2023-03-08T01:19:09;7.23;;;3.07;;
20449;SDS011;10384;51.940;8.432;2023-03-08T01:21:35;7.07;;;3.53;;
20449;SDS011;10384;51.940;8.432;2023-03-08T01:24:01;6.60;;;3.17;;
20449;SDS011;10384;51.940;8.432;2023-03-08T01:26:27;6.17;;;3.07;;
20449;SDS011;10384;51.940;8.432;2023-03-08T01:28:53;9.10;;;3.50;;
20449;SDS011;10384;51.940;8.432;2023-03-08T01:31:21;8.93;;;3.37;;
20449;SDS011;10384;51.940;8.432;2023-03-08T01:33:47;9.57;;;3.83;;
20449;SDS011;10384;51.940;8.432;2023-03-08T01:36:14;8.07;;;3.90;;
20449;SDS011;10384;51.940;8.432;2023-03-08T01:38:41;7.87;;;3.50;;
20449;SDS011;10384;51.940;8.432;2023-03-08T01:41:08;10.93;;;4.00;;
20449;SDS011;10384;51.940;8.432;2023-03-08T01:43:37;7.73;;;3.40;;
20449;SDS011;10384;51.940;8.432;2023-03-08T01:48:34;6.97;;;3.83;;
20449;SDS011;10384;51.940;8.432;2023-03-08T01:51:01;8.40;;;3.80;;
20449;SDS011;10384;51.940;8.432;2023-03-08T01:53:27;8.83;;;3.53;;
20449;SDS011;10384;51.940;8.432;2023-03-08T01:55:53;11.53;;;4.17;;
20449;SDS011;10384;51.940;8.432;2023-03-08T01:58:20;9.43;;;4.13;;
20449;SDS011;10384;51.940;8.432;2023-03-08T02:00:46;9.93;;;4.37;;
20449;SDS011;10384;51.940;8.432;2023-03-08T02:03:12;10.53;;;4.60;;
20449;SDS011;10384;51.940;8.432;2023-03-08T02:05:39;11.53;;;4.30;;
20449;SDS011;10384;51.940;8.432;2023-03-08T02:08:06;11.83;;;4.80;;
20449;SDS011;10384;51.940;8.432;2023-03-08T02:10:32;6.60;;;3.70;;
20449;SDS011;10384;51.940;8.432;2023-03-08T02:13:00;12.23;;;5.17;;
20449;SDS011;10384;51.940;8.432;2023-03-08T02:15:26;10.73;;;5.10;;
20449;SDS011;10384;51.940;8.432;2023-03-08T02:17:52;12.40;;;4.57;;
20449;SDS011;10384;51.940;8.432;2023-03-08T02:22:53;11.03;;;4.83;;
20449;SDS011;10384;51.940;8.432;2023-03-08T02:25:21;11.67;;;5.23;;
20449;SDS011;10384;51.940;8.432;2023-03-08T02:27:47;12.33;;;5.27;;
20449;SDS011;10384;51.940;8.432;2023-03-08T02:30:15;14.23;;;6.20;;
20449;SDS011;10384;51.940;8.432;2023-03-08T02:32:41;12.87;;;5.77;;
20449;SDS011;10384;51.940;8.432;2023-03-08T02:35:07;16.47;;;6.23;;
20449;SDS011;10384;51.940;8.432;2023-03-08T02:37:33;14.57;;;6.27;;
20449;SDS011;10384;51.940;8.432;2023-03-08T02:39:59;21.23;;;6.70;;
20449;SDS011;10384;51.940;8.432;2023-03-08T02:42:25;16.43;;;6.77;;
20449;SDS011;10384;51.940;8.432;2023-03-08T02:44:51;14.43;;;5.97;;
20449;SDS011;10384;51.940;8.432;2023-03-08T02:47:17;19.63;;;5.93;;
20449;SDS011;10384;51.940;8.432;2023-03-08T02:49:43;15.87;;;6.13;;
20449;SDS011;10384;51.940;8.432;2023-03-08T02:52:09;13.47;;;6.10;;
20449;SDS011;10384;51.940;8.432;2023-03-08T02:54:35;15.23;;;7.10;;
20449;SDS011;10384;51.940;8.432;2023-03-08T02:57:01;19.40;;;7.33;;
20449;SDS011;10384;51.940;8.432;2023-03-08T02:59:27;18.33;;;7.03;;
20449;SDS011;10384;51.940;8.432;2023-03-08T03:01:54;17.07;;;7.60;;
20449;SDS011;10384;51.940;8.432;2023-03-08T03:04:21;12.90;;;6.17;;
20449;SDS011;10384;51.940;8.432;2023-03-08T03:06:47;17.33;;;6.47;;
20449;SDS011;10384;51.940;8.432;2023-03-08T03:09:13;16.93;;;6.63;;
20449;SDS011;10384;51.940;8.432;2023-03-08T03:11:39;17.00;;;6.63;;
20449;SDS011;10384;51.940;8.432;2023-03-08T03:14:06;17.57;;;6.97;;
20449;SDS011;10384;51.940;8.432;2023-03-08T03:16:32;15.93;;;6.73;;
20449;SDS011;10384;51.940;8.432;2023-03-08T03:18:58;20.97;;;7.43;;
20449;SDS011;10384;51.940;8.432;2023-03-08T03:21:24;19.03;;;7.20;;
20449;SDS011;10384;51.940;8.432;2023-03-08T03:23:52;18.77;;;7.40;;
20449;SDS011;10384;51.940;8.432;2023-03-08T03:26:19;25.57;;;8.13;;
20449;SDS011;10384;51.940;8.432;2023-03-08T03:28:46;19.90;;;7.90;;
20449;SDS011;10384;51.940;8.432;2023-03-08T03:31:13;20.70;;;7.77;;
20449;SDS011;10384;51.940;8.432;2023-03-08T03:33:40;19.13;;;7.87;;
20449;SDS011;10384;51.940;8.432;2023-03-08T03:36:07;17.93;;;7.63;;
20449;SDS011;10384;51.940;8.432;2023-03-08T03:38:34;19.30;;;7.73;;
20449;SDS011;10384;51.940;8.432;2023-03-08T03:41:07;20.03;;;7.57;;
20449;SDS011;10384;51.940;8.432;2023-03-08T03:43:33;25.53;;;8.87;;
20449;SDS011;10384;51.940;8.432;2023-03-08T03:46:00;19.67;;;8.43;;
20449;SDS011;10384;51.940;8.432;2023-03-08T03:48:27;21.30;;;8.20;;
20449;SDS011;10384;51.940;8.432;2023-03-08T03:50:54;28.10;;;10.10;;
20449;SDS011;10384;51.940;8.432;2023-03-08T03:53:21;26.20;;;9.30;;
20449;SDS011;10384;51.940;8.432;2023-03-08T03:55:47;23.80;;;9.70;;
20449;SDS011;10384;51.940;8.432;2023-03-08T03:58:13;28.10;;;10.73;;
20449;SDS011;10384;51.940;8.432;2023-03-08T04:00:39;23.97;;;9.73;;
20449;SDS011;10384;51.940;8.432;2023-03-08T04:03:05;31.50;;;10.87;;
20449;SDS011;10384;51.940;8.432;2023-03-08T04:05:31;31.40;;;11.80;;
20449;SDS011;10384;51.940;8.432;2023-03-08T04:07:58;27.57;;;11.00;;
20449;SDS011;10384;51.940;8.432;2023-03-08T04:10:24;30.30;;;10.97;;
20449;SDS011;10384;51.940;8.432;2023-03-08T04:12:50;28.47;;;10.73;;
20449;SDS011;10384;51.940;8.432;2023-03-08T04:15:16;30.80;;;11.27;;
20449;SDS011;10384;51.940;8.432;2023-03-08T04:17:43;27.70;;;11.50;;
20449;SDS011;10384;51.940;8.432;2023-03-08T04:20:09;31.93;;;10.80;;
20449;SDS011;10384;51.940;8.432;2023-03-08T04:22:35;29.97;;;11.33;;
20449;SDS011;10384;51.940;8.432;2023-03-08T04:25:01;27.93;;;10.67;;
20449;SDS011;10384;51.940;8.432;2023-03-08T04:27:27;30.07;;;11.97;;
20449;SDS011;10384;51.940;8.432;2023-03-08T04:29:53;32.03;;;12.20;;
20449;SDS011;10384;51.940;8.432;2023-03-08T04:32:19;29.07;;;11.17;;
20449;SDS011;10384;51.940;8.432;2023-03-08T04:34:45;36.00;;;12.50;;
20449;SDS011;10384;51.940;8.432;2023-03-08T04:37:12;40.37;;;13.80;;
20449;SDS011;10384;51.940;8.432;2023-03-08T04:39:38;39.90;;;12.93;;
20449;SDS011;10384;51.940;8.432;2023-03-08T04:42:04;41.77;;;13.80;;
20449;SDS011;10384;51.940;8.432;2023-03-08T04:44:30;40.40;;;13.33;;
20449;SDS011;10384;51.940;8.432;2023-03-08T04:46:57;38.87;;;12.90;;
20449;SDS011;10384;51.940;8.432;2023-03-08T04:49:24;42.23;;;14.30;;
20449;SDS011;10384;51.940;8.432;2023-03-08T04:51:50;40.53;;;13.80;;
20449;SDS011;10384;51.940;8.432;2023-03-08T04:54:16;42.23;;;13.60;;
20449;SDS011;10384;51.940;8.432;2023-03-08T04:56:42;39.77;;;13.83;;
20449;SDS011;10384;51.940;8.432;2023-03-08T04:59:08;37.80;;;14.77;;
20449;SDS011;10384;51.940;8.432;2023-03-08T05:01:34;44.30;;;14.57;;
20449;SDS011;10384;51.940;8.432;2023-03-08T05:04:00;52.40;;;16.27;;
20449;SDS011;10384;51.940;8.432;2023-03-08T05:06:26;54.03;;;17.20;;
20449;SDS011;10384;51.940;8.432;2023-03-08T05:08:52;47.90;;;16.03;;
20449;SDS011;10384;51.940;8.432;2023-03-08T05:11:20;49.33;;;17.00;;
20449;SDS011;10384;51.940;8.432;2023-03-08T05:13:47;44.90;;;14.83;;
20449;SDS011;10384;51.940;8.432;2023-03-08T05:16:13;46.17;;;15.37;;
20449;SDS011;10384;51.940;8.432;2023-03-08T05:18:40;49.07;;;16.33;;
20449;SDS011;10384;51.940;8.432;2023-03-08T05:21:07;54.10;;;16.83;;
20449;SDS011;10384;51.940;8.432;2023-03-08T05:23:34;45.23;;;16.00;;
20449;SDS011;10384;51.940;8.432;2023-03-08T05:26:01;47.30;;;15.30;;
20449;SDS011;10384;51.940;8.432;2023-03-08T05:28:28;45.90;;;13.87;;
20449;SDS011;10384;51.940;8.432;2023-03-08T05:33:27;44.57;;;15.43;;
20449;SDS011;10384;51.940;8.432;2023-03-08T05:35:53;49.87;;;16.27;;
20449;SDS011;10384;51.940;8.432;2023-03-08T05:38:19;44.83;;;14.73;;
20449;SDS011;10384;51.940;8.432;2023-03-08T05:40:45;49.20;;;15.60;;
20449;SDS011;10384;51.940;8.432;2023-03-08T05:43:11;40.90;;;15.80;;
20449;SDS011;10384;51.940;8.432;2023-03-08T05:45:37;49.43;;;16.27;;
20449;SDS011;10384;51.940;8.432;2023-03-08T05:48:03;40.50;;;13.97;;
20449;SDS011;10384;51.940;8.432;2023-03-08T05:50:30;40.43;;;14.67;;
20449;SDS011;10384;51.940;8.432;2023-03-08T05:52:55;42.67;;;14.60;;
20449;SDS011;10384;51.940;8.432;2023-03-08T05:55:21;44.87;;;14.23;;
20449;SDS011;10384;51.940;8.432;2023-03-08T05:57:48;48.20;;;16.20;;
20449;SDS011;10384;51.940;8.432;2023-03-08T06:00:15;39.97;;;15.57;;
20449;SDS011;10384;51.940;8.432;2023-03-08T06:02:41;45.53;;;16.37;;
20449;SDS011;10384;51.940;8.432;2023-03-08T06:05:07;47.30;;;15.80;;
20449;SDS011;10384;51.940;8.432;2023-03-08T06:07:33;43.07;;;16.23;;
20449;SDS011;10384;51.940;8.432;2023-03-08T06:10:00;44.23;;;14.63;;
20449;SDS011;10384;51.940;8.432;2023-03-08T06:12:26;40.60;;;14.57;;
20449;SDS011;10384;51.940;8.432;2023-03-08T06:14:52;46.13;;;15.73;;
20449;SDS011;10384;51.940;8.432;2023-03-08T06:17:18;52.00;;;16.20;;
20449;SDS011;10384;51.940;8.432;2023-03-08T06:19:44;42.23;;;14.53;;
20449;SDS011;10384;51.940;8.432;2023-03-08T06:22:10;42.70;;;15.47;;
20449;SDS011;10384;51.940;8.432;2023-03-08T06:24:37;48.20;;;15.73;;
20449;SDS011;10384;51.940;8.432;2023-03-08T06:27:03;48.03;;;16.27;;
20449;SDS011;10384;51.940;8.432;2023-03-08T06:29:29;46.97;;;15.60;;
20449;SDS011;10384;51.940;8.432;2023-03-08T06:31:55;45.57;;;16.33;;
20449;SDS011;10384;51.940;8.432;2023-03-08T06:34:21;42.60;;;15.67;;
20449;SDS011;10384;51.940;8.432;2023-03-08T06:36:47;39.30;;;14.43;;
20449;SDS011;10384;51.940;8.432;2023-03-08T06:39:13;50.50;;;15.60;;
20449;SDS011;10384;51.940;8.432;2023-03-08T06:41:39;53.73;;;17.17;;
20449;SDS011;10384;51.940;8.432;2023-03-08T06:44:05;44.30;;;13.60;;
20449;SDS011;10384;51.940;8.432;2023-03-08T06:46:31;42.57;;;14.83;;
20449;SDS011;10384;51.940;8.432;2023-03-08T06:48:58;49.13;;;15.80;;
20449;SDS011;10384;51.940;8.432;2023-03-08T06:51:25;44.93;;;15.80;;
20449;SDS011;10384;51.940;8.432;2023-03-08T06:53:51;48.07;;;15.07;;
20449;SDS011;10384;51.940;8.432;2023-03-08T06:56:17;45.73;;;15.97;;
20449;SDS011;10384;51.940;8.432;2023-03-08T06:58:43;53.70;;;15.93;;
20449;SDS011;10384;51.940;8.432;2023-03-08T07:01:09;52.80;;;16.33;;
20449;SDS011;10384;51.940;8.432;2023-03-08T07:03:37;50.37;;;15.27;;
20449;SDS011;10384;51.940;8.432;2023-03-08T07:06:04;46.43;;;14.70;;
20449;SDS011;10384;51.940;8.432;2023-03-08T07:08:31;39.20;;;14.03;;
20449;SDS011;10384;51.940;8.432;2023-03-08T07:10:57;48.50;;;16.10;;
20449;SDS011;10384;51.940;8.432;2023-03-08T07:13:24;45.60;;;15.07;;
20449;SDS011;10384;51.940;8.432;2023-03-08T07:15:50;45.83;;;16.03;;
20449;SDS011;10384;51.940;8.432;2023-03-08T07:18:17;45.63;;;14.07;;
20449;SDS011;10384;51.940;8.432;2023-03-08T07:20:43;43.37;;;13.90;;
20449;SDS011;10384;51.940;8.432;2023-03-08T07:23:09;45.30;;;14.63;;
20449;SDS011;10384;51.940;8.432;2023-03-08T07:25:36;51.10;;;15.43;;
20449;SDS011;10384;51.940;8.432;2023-03-08T07:28:03;44.83;;;14.90;;
20449;SDS011;10384;51.940;8.432;2023-03-08T07:30:29;45.13;;;13.83;;
20449;SDS011;10384;51.940;8.432;2023-03-08T07:32:55;39.87;;;13.20;;
20449;SDS011;10384;51.940;8.432;2023-03-08T07:35:21;45.87;;;13.90;;
20449;SDS011;10384;51.940;8.432;2023-03-08T07:37:47;39.13;;;14.27;;
20449;SDS011;10384;51.940;8.432;2023-03-08T07:40:14;41.23;;;13.43;;
20449;SDS011;10384;51.940;8.432;2023-03-08T07:42:41;40.97;;;14.10;;
20449;SDS011;10384;51.940;8.432;2023-03-08T07:45:08;48.33;;;14.47;;
20449;SDS011;10384;51.940;8.432;2023-03-08T07:47:35;42.67;;;13.37;;
20449;SDS011;10384;51.940;8.432;2023-03-08T07:50:01;41.57;;;13.43;;
20449;SDS011;10384;51.940;8.432;2023-03-08T07:52:30;40.07;;;13.47;;
20449;SDS011;10384;51.940;8.432;2023-03-08T07:54:56;39.03;;;13.70;;
20449;SDS011;10384;51.940;8.432;2023-03-08T07:57:22;35.93;;;12.77;;
20449;SDS011;10384;51.940;8.432;2023-03-08T07:59:49;37.50;;;13.27;;
20449;SDS011;10384;51.940;8.432;2023-03-08T08:02:15;39.17;;;13.80;;
20449;SDS011;10384;51.940;8.432;2023-03-08T08:04:41;38.73;;;13.07;;
20449;SDS011;10384;51.940;8.432;2023-03-08T08:07:10;41.57;;;12.80;;
20449;SDS011;10384;51.940;8.432;2023-03-08T08:09:36;39.23;;;13.27;;
20449;SDS011;10384;51.940;8.432;2023-03-08T08:12:03;37.60;;;12.83;;
20449;SDS011;10384;51.940;8.432;2023-03-08T08:14:29;37.23;;;13.50;;
20449;SDS011;10384;51.940;8.432;2023-03-08T08:16:55;36.57;;;12.63;;
20449;SDS011;10384;51.940;8.432;2023-03-08T08:19:21;37.03;;;12.57;;
20449;SDS011;10384;51.940;8.432;2023-03-08T08:21:47;37.13;;;13.03;;
20449;SDS011;10384;51.940;8.432;2023-03-08T08:24:13;36.23;;;12.77;;
20449;SDS011;10384;51.940;8.432;2023-03-08T08:26:39;36.73;;;13.20;;
20449;SDS011;10384;51.940;8.432;2023-03-08T08:29:06;37.93;;;12.33;;
20449;SDS011;10384;51.940;8.432;2023-03-08T08:31:32;33.57;;;12.50;;
20449;SDS011;10384;51.940;8.432;2023-03-08T08:33:58;34.13;;;11.50;;
20449;SDS011;10384;51.940;8.432;2023-03-08T08:36:24;33.70;;;11.70;;
20449;SDS011;10384;51.940;8.432;2023-03-08T08:38:50;32.13;;;11.60;;
20449;SDS011;10384;51.940;8.432;2023-03-08T08:41:17;35.00;;;11.60;;
20449;SDS011;10384;51.940;8.432;2023-03-08T08:43:44;30.77;;;10.53;;
20449;SDS011;10384;51.940;8.432;2023-03-08T08:46:10;34.07;;;10.07;;
20449;SDS011;10384;51.940;8.432;2023-03-08T08:48:37;27.77;;;11.03;;
20449;SDS011;10384;51.940;8.432;2023-03-08T08:51:07;25.47;;;10.27;;
20449;SDS011;10384;51.940;8.432;2023-03-08T08:53:33;25.93;;;9.40;;
20449;SDS011;10384;51.940;8.432;2023-03-08T08:56:11;28.70;;;9.77;;
20449;SDS011;10384;51.940;8.432;2023-03-08T08:58:37;24.30;;;9.43;;
20449;SDS011;10384;51.940;8.432;2023-03-08T09:01:03;26.00;;;9.30;;
20449;SDS011;10384;51.940;8.432;2023-03-08T09:03:29;27.33;;;9.77;;
20449;SDS011;10384;51.940;8.432;2023-03-08T09:05:56;22.20;;;9.07;;
20449;SDS011;10384;51.940;8.432;2023-03-08T09:08:23;27.37;;;9.97;;
20449;SDS011;10384;51.940;8.432;2023-03-08T09:10:49;26.90;;;10.00;;
20449;SDS011;10384;51.940;8.432;2023-03-08T09:13:15;25.63;;;8.60;;
20449;SDS011;10384;51.940;8.432;2023-03-08T09:15:41;24.97;;;9.57;;
20449;SDS011;10384;51.940;8.432;2023-03-08T09:18:07;24.07;;;9.07;;
20449;SDS011;10384;51.940;8.432;2023-03-08T09:20:33;22.57;;;8.50;;
20449;SDS011;10384;51.940;8.432;2023-03-08T09:22:59;23.50;;;8.87;;
20449;SDS011;10384;51.940;8.432;2023-03-08T09:25:25;25.50;;;9.77;;
20449;SDS011;10384;51.940;8.432;2023-03-08T09:27:51;26.63;;;9.30;;
20449;SDS011;10384;51.940;8.432;2023-03-08T09:30:17;22.33;;;8.87;;
20449;SDS011;10384;51.940;8.432;2023-03-08T09:32:43;23.70;;;8.90;;
20449;SDS011;10384;51.940;8.432;2023-03-08T09:35:09;22.93;;;8.40;;
20449;SDS011;10384;51.940;8.432;2023-03-08T09:37:35;21.17;;;8.97;;
20449;SDS011;10384;51.940;8.432;2023-03-08T09:40:02;23.30;;;7.67;;
20449;SDS011;10384;51.940;8.432;2023-03-08T09:42:33;20.67;;;8.97;;
20449;SDS011;10384;51.940;8.432;2023-03-08T09:52:41;24.27;;;8.60;;
20449;SDS011;10384;51.940;8.432;2023-03-08T09:55:12;21.93;;;7.77;;
20449;SDS011;10384;51.940;8.432;2023-03-08T09:57:43;17.47;;;7.13;;
20449;SDS011;10384;51.940;8.432;2023-03-08T10:00:17;16.00;;;5.77;;
20449;SDS011;10384;51.940;8.432;2023-03-08T10:05:45;13.80;;;5.73;;
20449;SDS011;10384;51.940;8.432;2023-03-08T10:08:16;15.50;;;6.13;;
20449;SDS011;10384;51.940;8.432;2023-03-08T10:13:18;13.93;;;4.93;;
20449;SDS011;10384;51.940;8.432;2023-03-08T10:15:49;12.77;;;5.27;;
20449;SDS011;10384;51.940;8.432;2023-03-08T10:20:41;14.00;;;5.67;;
20449;SDS011;10384;51.940;8.432;2023-03-08T10:25:34;14.03;;;5.40;;
20449;SDS011;10384;51.940;8.432;2023-03-08T10:28:01;12.07;;;5.27;;
20449;SDS011;10384;51.940;8.432;2023-03-08T10:30:31;11.37;;;4.97;;
20449;SDS011;10384;51.940;8.432;2023-03-08T10:32:58;10.57;;;4.63;;
20449;SDS011;10384;51.940;8.432;2023-03-08T10:35:32;9.90;;;4.40;;
20449;SDS011;10384;51.940;8.432;2023-03-08T10:37:58;13.13;;;5.20;;
20449;SDS011;10384;51.940;8.432;2023-03-08T10:40:24;13.20;;;4.90;;
20449;SDS011;10384;51.940;8.432;2023-03-08T10:42:51;14.33;;;5.10;;
20449;SDS011;10384;51.940;8.432;2023-03-08T10:45:19;11.93;;;5.47;;
20449;SDS011;10384;51.940;8.432;2023-03-08T10:47:57;12.50;;;5.20;;
20449;SDS011;10384;51.940;8.432;2023-03-08T10:50:24;11.33;;;4.70;;
20449;SDS011;10384;51.940;8.432;2023-03-08T10:52:51;12.90;;;4.43;;
20449;SDS011;10384;51.940;8.432;2023-03-08T10:55:18;10.53;;;4.30;;
20449;SDS011;10384;51.940;8.432;2023-03-08T10:57:49;10.00;;;4.23;;
20449;SDS011;10384;51.940;8.432;2023-03-08T11:02:46;11.07;;;4.07;;
20449;SDS011;10384;51.940;8.432;2023-03-08T11:05:23;12.90;;;4.73;;
20449;SDS011;10384;51.940;8.432;2023-03-08T11:07:53;15.47;;;4.97;;
20449;SDS011;10384;51.940;8.432;2023-03-08T11:10:20;14.93;;;4.77;;
20449;SDS011;10384;51.940;8.432;2023-03-08T11:12:59;12.03;;;3.83;;
20449;SDS011;10384;51.940;8.432;2023-03-08T11:15:25;10.20;;;3.03;;
20449;SDS011;10384;51.940;8.432;2023-03-08T11:17:54;10.77;;;3.57;;
20449;SDS011;10384;51.940;8.432;2023-03-08T11:20:32;9.10;;;3.50;;
20449;SDS011;10384;51.940;8.432;2023-03-08T11:23:10;10.40;;;2.90;;
20449;SDS011;10384;51.940;8.432;2023-03-08T11:28:20;5.87;;;2.80;;
20449;SDS011;10384;51.940;8.432;2023-03-08T11:36:19;7.27;;;2.70;;
20449;SDS011;10384;51.940;8.432;2023-03-08T11:38:51;8.40;;;3.50;;
20449;SDS011;10384;51.940;8.432;2023-03-08T11:49:12;8.23;;;2.97;;
20449;SDS011;10384;51.940;8.432;2023-03-08T11:54:18;7.77;;;2.90;;
20449;SDS011;10384;51.940;8.432;2023-03-08T12:01:53;4.27;;;2.17;;
20449;SDS011;10384;51.940;8.432;2023-03-08T12:04:26;5.07;;;2.00;;
20449;SDS011;10384;51.940;8.432;2023-03-08T12:06:55;4.33;;;2.20;;
20449;SDS011;10384;51.940;8.432;2023-03-08T12:14:34;5.13;;;2.30;;
20449;SDS011;10384;51.940;8.432;2023-03-08T12:17:06;4.60;;;2.07;;
20449;SDS011;10384;51.940;8.432;2023-03-08T12:19:47;4.43;;;2.33;;
20449;SDS011;10384;51.940;8.432;2023-03-08T12:28:00;3.73;;;1.80;;
20449;SDS011;10384;51.940;8.432;2023-03-08T12:33:12;3.83;;;2.17;;
20449;SDS011;10384;51.940;8.432;2023-03-08T12:35:49;5.10;;;2.10;;
20449;SDS011;10384;51.940;8.432;2023-03-08T12:40:45;3.67;;;2.10;;
20449;SDS011;10384;51.940;8.432;2023-03-08T12:45:45;6.43;;;3.00;;
20449;SDS011;10384;51.940;8.432;2023-03-08T12:48:53;4.83;;;2.10;;
20449;SDS011;10384;51.940;8.432;2023-03-08T12:58:38;3.57;;;1.77;;
20449;SDS011;10384;51.940;8.432;2023-03-08T13:01:23;4.20;;;1.93;;
20449;SDS011;10384;51.940;8.432;2023-03-08T13:03:52;2.80;;;1.50;;
20449;SDS011;10384;51.940;8.432;2023-03-08T13:09:12;3.33;;;1.53;;
20449;SDS011;10384;51.940;8.432;2023-03-08T13:11:42;4.30;;;1.20;;
20449;SDS011;10384;51.940;8.432;2023-03-08T13:14:23;2.03;;;1.30;;
20449;SDS011;10384;51.940;8.432;2023-03-08T13:16:50;2.00;;;1.27;;
20449;SDS011;10384;51.940;8.432;2023-03-08T13:24:17;3.10;;;1.30;;
20449;SDS011;10384;51.940;8.432;2023-03-08T13:27:18;3.00;;;1.60;;
20449;SDS011;10384;51.940;8.432;2023-03-08T13:29:36;2.80;;;1.33;;
20449;SDS011;10384;51.940;8.432;2023-03-08T13:32:04;3.07;;;1.30;;
20449;SDS011;10384;51.940;8.432;2023-03-08T13:34:31;2.60;;;1.37;;
20449;SDS011;10384;51.940;8.432;2023-03-08T13:36:57;4.80;;;1.83;;
20449;SDS011;10384;51.940;8.432;2023-03-08T13:39:25;3.27;;;1.83;;
20449;SDS011;10384;51.940;8.432;2023-03-08T13:41:51;3.47;;;1.80;;
20449;SDS011;10384;51.940;8.432;2023-03-08T13:44:21;5.07;;;1.80;;
20449;SDS011;10384;51.940;8.432;2023-03-08T13:46:48;6.47;;;1.90;;
20449;SDS011;10384;51.940;8.432;2023-03-08T13:49:26;3.33;;;1.60;;
20449;SDS011;10384;51.940;8.432;2023-03-08T13:52:04;4.90;;;2.00;;
20449;SDS011;10384;51.940;8.432;2023-03-08T13:54:40;3.70;;;2.27;;
20449;SDS011;10384;51.940;8.432;2023-03-08T13:57:16;4.03;;;2.00;;
20449;SDS011;10384;51.940;8.432;2023-03-08T13:59:46;3.97;;;1.90;;
20449;SDS011;10384;51.940;8.432;2023-03-08T14:02:15;4.77;;;2.40;;
20449;SDS011;10384;51.940;8.432;2023-03-08T14:04:43;4.83;;;2.00;;
20449;SDS011;10384;51.940;8.432;2023-03-08T14:07:13;3.63;;;2.00;;
20449;SDS011;10384;51.940;8.432;2023-03-08T14:09:42;4.60;;;2.03;;
20449;SDS011;10384;51.940;8.432;2023-03-08T14:12:11;4.13;;;2.30;;
20449;SDS011;10384;51.940;8.432;2023-03-08T14:14:41;7.53;;;3.20;;
20449;SDS011;10384;51.940;8.432;2023-03-08T14:17:13;5.20;;;2.73;;
20449;SDS011;10384;51.940;8.432;2023-03-08T14:19:42;7.83;;;2.93;;
20449;SDS011;10384;51.940;8.432;2023-03-08T14:22:13;7.17;;;2.90;;
20449;SDS011;10384;51.940;8.432;2023-03-08T14:24:39;4.47;;;2.30;;
20449;SDS011;10384;51.940;8.432;2023-03-08T14:29:38;5.80;;;2.83;;
20449;SDS011;10384;51.940;8.432;2023-03-08T14:34:45;6.83;;;2.60;;
20449;SDS011;10384;51.940;8.432;2023-03-08T14:37:24;4.07;;;2.00;;
20449;SDS011;10384;51.940;8.432;2023-03-08T14:39:54;4.80;;;2.47;;
20449;SDS011;10384;51.940;8.432;2023-03-08T14:42:29;4.33;;;2.40;;
20449;SDS011;10384;51.940;8.432;2023-03-08T14:45:00;4.40;;;2.53;;
20449;SDS011;10384;51.940;8.432;2023-03-08T14:47:29;3.67;;;2.13;;
20449;SDS011;10384;51.940;8.432;2023-03-08T14:49:58;5.13;;;2.30;;
20449;SDS011;10384;51.940;8.432;2023-03-08T14:52:26;4.80;;;2.37;;
20449;SDS011;10384;51.940;8.432;2023-03-08T14:54:52;7.70;;;2.53;;
20449;SDS011;10384;51.940;8.432;2023-03-08T14:57:19;5.10;;;2.47;;
20449;SDS011;10384;51.940;8.432;2023-03-08T14:59:46;5.60;;;2.60;;
20449;SDS011;10384;51.940;8.432;2023-03-08T15:02:13;6.03;;;2.67;;
20449;SDS011;10384;51.940;8.432;2023-03-08T15:04:40;4.80;;;2.03;;
20449;SDS011;10384;51.940;8.432;2023-03-08T15:07:06;5.70;;;2.33;;
20449;SDS011;10384;51.940;8.432;2023-03-08T15:09:33;5.23;;;2.33;;
20449;SDS011;10384;51.940;8.432;2023-03-08T15:11:59;4.33;;;2.10;;
20449;SDS011;10384;51.940;8.432;2023-03-08T15:14:25;6.10;;;2.27;;
20449;SDS011;10384;51.940;8.432;2023-03-08T15:16:52;4.43;;;2.30;;
20449;SDS011;10384;51.940;8.432;2023-03-08T15:19:19;4.10;;;2.30;;
20449;SDS011;10384;51.940;8.432;2023-03-08T15:21:46;3.73;;;1.80;;
20449;SDS011;10384;51.940;8.432;2023-03-08T15:24:13;3.50;;;1.83;;
20449;SDS011;10384;51.940;8.432;2023-03-08T15:26:41;3.87;;;2.07;;
20449;SDS011;10384;51.940;8.432;2023-03-08T15:29:23;5.30;;;2.47;;
20449;SDS011;10384;51.940;8.432;2023-03-08T15:31:53;4.00;;;2.10;;
20449;SDS011;10384;51.940;8.432;2023-03-08T15:34:19;5.17;;;2.00;;
20449;SDS011;10384;51.940;8.432;2023-03-08T15:36:46;5.13;;;2.17;;
20449;SDS011;10384;51.940;8.432;2023-03-08T15:39:12;3.93;;;2.23;;
20449;SDS011;10384;51.940;8.432;2023-03-08T15:41:38;4.03;;;2.10;;
20449;SDS011;10384;51.940;8.432;2023-03-08T15:44:04;4.20;;;2.50;;
20449;SDS011;10384;51.940;8.432;2023-03-08T15:46:30;3.10;;;2.17;;
20449;SDS011;10384;51.940;8.432;2023-03-08T15:48:56;4.20;;;2.43;;
20449;SDS011;10384;51.940;8.432;2023-03-08T15:51:24;4.90;;;2.53;;
20449;SDS011;10384;51.940;8.432;2023-03-08T15:53:51;5.93;;;2.83;;
20449;SDS011;10384;51.940;8.432;2023-03-08T15:56:18;5.83;;;2.63;;
20449;SDS011;10384;51.940;8.432;2023-03-08T15:58:46;5.17;;;2.40;;
20449;SDS011;10384;51.940;8.432;2023-03-08T16:01:12;4.67;;;2.60;;
20449;SDS011;10384;51.940;8.432;2023-03-08T16:03:38;6.33;;;3.10;;
20449;SDS011;10384;51.940;8.432;2023-03-08T16:06:08;5.67;;;2.80;;